Time;durP1;ratioP1;P1;durP2;ratioP2;P2;SDS_P1;SDS_P2;PMS_P1;PMS_P2;Temp;Humidity;BMP_temperature;BMP_pressure;BME280_temperature;BME280_humidity;BME280_pressure;Samples;Min_cycle;Max_cycle;Signal;HPM_P1;HPM_P2
2022/06/26 00:00:22;;;;;;;3.50;3.30;;;25.20;49.80;;;;;;5056419;28;20464;-88
2022/06/26 00:02:50;;;;;;;5.90;3.63;;;25.30;49.70;;;;;;5052278;28;20480;-86
2022/06/26 00:05:17;;;;;;;4.63;3.17;;;25.40;49.50;;;;;;5044648;28;20892;-87
2022/06/26 00:07:45;;;;;;;4.83;3.63;;;25.40;49.00;;;;;;5050879;28;20701;-86
2022/06/26 00:10:12;;;;;;;9.90;4.03;;;25.50;48.70;;;;;;5057173;28;20539;-87
2022/06/26 00:12:39;;;;;;;3.67;3.33;;;25.60;48.60;;;;;;5035426;28;20504;-87
2022/06/26 00:15:07;;;;;;;4.03;3.73;;;25.60;48.80;;;;;;5048081;28;20877;-87
2022/06/26 00:17:34;;;;;;;3.97;3.50;;;25.50;48.70;;;;;;5061987;28;20440;-87
2022/06/26 00:20:03;;;;;;;4.00;3.73;;;25.50;48.60;;;;;;5059445;28;20453;-87
2022/06/26 00:22:30;;;;;;;5.20;4.00;;;25.50;48.70;;;;;;5034590;28;20503;-87
2022/06/26 00:24:57;;;;;;;3.73;3.43;;;25.50;48.80;;;;;;5061973;28;20476;-88
2022/06/26 00:27:24;;;;;;;4.83;3.93;;;25.40;49.20;;;;;;5042245;28;20971;-87
2022/06/26 00:29:51;;;;;;;3.73;3.43;;;25.40;49.40;;;;;;5059275;28;20457;-87
2022/06/26 00:32:18;;;;;;;3.50;3.20;;;25.40;49.20;;;;;;5060188;28;20974;-87
2022/06/26 00:34:45;;;;;;;3.77;3.47;;;25.40;49.10;;;;;;5058364;28;20790;-87
2022/06/26 00:37:13;;;;;;;5.37;3.40;;;25.40;49.20;;;;;;5057793;28;20457;-87
2022/06/26 00:39:41;;;;;;;3.87;3.57;;;25.30;49.00;;;;;;5051876;28;20446;-89
2022/06/26 00:42:08;;;;;;;3.90;3.60;;;25.30;49.40;;;;;;5046663;28;20473;-90
2022/06/26 00:44:35;;;;;;;4.40;3.80;;;25.30;49.60;;;;;;5062011;28;20469;-89
2022/06/26 00:47:02;;;;;;;5.47;3.73;;;25.30;49.80;;;;;;5037957;28;20527;-88
2022/06/26 00:49:29;;;;;;;5.30;3.77;;;25.20;50.00;;;;;;5044489;28;20821;-86
2022/06/26 00:51:57;;;;;;;4.73;3.90;;;25.20;50.50;;;;;;5043696;28;20733;-89
2022/06/26 00:54:27;;;;;;;4.07;3.67;;;25.20;50.70;;;;;;5051303;28;20433;-87
2022/06/26 00:56:57;;;;;;;3.20;2.90;;;25.10;50.80;;;;;;5077148;28;20498;-88
2022/06/26 00:59:25;;;;;;;3.50;3.10;;;25.10;51.00;;;;;;5051847;28;20447;-87
2022/06/26 01:01:52;;;;;;;3.70;3.40;;;25.10;50.80;;;;;;5048910;28;20572;-87
2022/06/26 01:04:20;;;;;;;3.70;3.43;;;25.10;50.80;;;;;;5060633;28;20563;-87
2022/06/26 01:06:48;;;;;;;3.60;3.20;;;25.00;50.50;;;;;;5060501;28;20481;-88
2022/06/26 01:09:16;;;;;;;4.30;3.60;;;25.00;50.40;;;;;;5063253;28;20457;-87
2022/06/26 01:11:46;;;;;;;5.67;3.37;;;25.00;50.20;;;;;;5058208;28;20476;-87
2022/06/26 01:14:13;;;;;;;6.37;4.00;;;24.90;50.20;;;;;;5048644;28;20429;-88
2022/06/26 01:16:42;;;;;;;9.57;4.40;;;24.90;50.20;;;;;;5031498;28;20453;-87
2022/06/26 01:19:12;;;;;;;3.97;3.67;;;24.90;50.20;;;;;;5062174;28;20449;-87
2022/06/26 01:21:39;;;;;;;4.20;3.80;;;24.90;50.30;;;;;;5043233;28;20480;-88
2022/06/26 01:24:08;;;;;;;4.63;4.20;;;24.80;50.40;;;;;;5038208;28;20430;-89
2022/06/26 01:26:36;;;;;;;3.93;3.63;;;24.70;50.30;;;;;;5030353;28;20437;-88
2022/06/26 01:29:05;;;;;;;3.73;3.33;;;24.70;50.50;;;;;;5046184;28;20454;-90
2022/06/26 01:31:34;;;;;;;4.13;3.70;;;24.70;50.80;;;;;;5059120;28;20465;-89
2022/06/26 01:34:03;;;;;;;3.20;3.00;;;24.70;51.10;;;;;;5047919;28;20449;-88
2022/06/26 01:36:31;;;;;;;3.77;3.47;;;24.70;51.10;;;;;;5062486;28;20819;-89
2022/06/26 01:38:59;;;;;;;4.20;3.70;;;24.60;51.10;;;;;;5059474;28;20461;-88
2022/06/26 01:41:28;;;;;;;5.90;3.27;;;24.50;51.00;;;;;;5068163;28;20870;-87
2022/06/26 01:43:56;;;;;;;5.90;3.80;;;24.60;50.80;;;;;;5043491;28;20456;-88
2022/06/26 01:46:25;;;;;;;4.60;3.40;;;24.50;50.60;;;;;;5045789;28;20728;-87
2022/06/26 01:48:53;;;;;;;4.80;4.30;;;24.50;50.70;;;;;;5040491;28;20533;-87
2022/06/26 01:51:20;;;;;;;4.23;3.93;;;24.40;50.70;;;;;;5038036;28;20495;-87
2022/06/26 01:53:47;;;;;;;4.17;3.77;;;24.40;50.70;;;;;;5055941;28;20527;-88
2022/06/26 01:56:15;;;;;;;4.33;4.03;;;24.40;51.00;;;;;;5056185;28;20449;-89
2022/06/26 01:58:49;;;;;;;4.90;2.97;;;24.40;51.10;;;;;;5028796;28;20457;-86
2022/06/26 02:01:20;;;;;;;3.83;3.53;;;24.30;51.10;;;;;;5043763;28;20481;-87
2022/06/26 02:03:47;;;;;;;6.63;3.87;;;24.30;51.70;;;;;;5056841;28;21025;-87
2022/06/26 02:06:14;;;;;;;3.27;2.97;;;24.20;52.20;;;;;;5045206;28;20828;-90
2022/06/26 02:08:42;;;;;;;4.10;3.80;;;24.10;52.70;;;;;;5065303;28;20556;-88
2022/06/26 02:13:58;;;;;;;4.57;4.17;;;23.90;52.70;;;;;;5049183;28;20437;-88
2022/06/26 02:16:30;;;;;;;5.63;4.40;;;23.40;53.00;;;;;;5041622;28;20444;-88
2022/06/26 02:18:59;;;;;;;4.10;3.73;;;23.40;53.40;;;;;;5048031;28;20929;-87
2022/06/26 02:21:28;;;;;;;4.23;3.93;;;23.50;53.30;;;;;;5040288;28;20464;-87
2022/06/26 02:23:59;;;;;;;4.83;4.20;;;23.50;53.20;;;;;;5046390;28;21144;-87
2022/06/26 02:26:26;;;;;;;5.00;4.60;;;22.90;54.20;;;;;;5033563;28;20552;-88
2022/06/26 02:28:59;;;;;;;4.30;4.00;;;23.00;54.20;;;;;;5051192;28;20449;-87
2022/06/26 02:31:29;;;;;;;4.80;4.13;;;22.40;54.90;;;;;;5045998;28;20472;-88
2022/06/26 02:33:56;;;;;;;6.40;4.03;;;21.60;56.60;;;;;;5058650;28;20441;-90
2022/06/26 02:36:23;;;;;;;3.80;3.50;;;21.80;57.00;;;;;;5055929;28;20836;-87
2022/06/26 02:38:50;;;;;;;3.97;3.67;;;22.10;56.50;;;;;;5048293;28;20837;-89
2022/06/26 02:41:17;;;;;;;4.30;4.00;;;22.50;56.00;;;;;;5064975;28;20471;-87
2022/06/26 02:43:44;;;;;;;4.13;3.73;;;22.60;56.10;;;;;;5063372;28;20522;-90
2022/06/26 02:46:13;;;;;;;7.23;3.60;;;22.80;55.30;;;;;;5059759;28;20465;-87
2022/06/26 02:48:40;;;;;;;4.63;4.27;;;23.00;55.10;;;;;;5063522;28;20450;-86
2022/06/26 02:51:08;;;;;;;3.20;3.00;;;23.10;54.50;;;;;;5062799;28;20547;-86
2022/06/26 02:53:35;;;;;;;3.90;3.50;;;23.20;53.70;;;;;;5034321;28;20782;-88
2022/06/26 02:56:02;;;;;;;4.40;4.03;;;23.10;53.30;;;;;;5057973;28;20495;-87
2022/06/26 02:58:29;;;;;;;3.87;3.50;;;23.00;53.60;;;;;;5049338;28;20448;-88
2022/06/26 03:00:57;;;;;;;5.57;4.43;;;23.10;53.30;;;;;;5076204;28;20905;-87
2022/06/26 03:03:26;;;;;;;4.80;4.30;;;23.30;53.20;;;;;;5079079;28;20477;-90
2022/06/26 03:05:54;;;;;;;5.23;4.73;;;23.40;52.90;;;;;;5062784;28;21275;-87
2022/06/26 03:08:26;;;;;;;6.30;4.33;;;23.50;52.70;;;;;;5044442;28;20755;-87
2022/06/26 03:10:54;;;;;;;4.80;4.40;;;23.60;52.60;;;;;;5044519;28;20883;-86
2022/06/26 03:13:21;;;;;;;4.93;4.37;;;23.70;52.90;;;;;;5056092;28;20841;-87
2022/06/26 03:15:49;;;;;;;4.90;4.50;;;23.70;53.20;;;;;;5040560;28;20933;-90
2022/06/26 03:18:18;;;;;;;4.93;4.40;;;23.70;53.30;;;;;;5064857;28;20449;-88
2022/06/26 03:20:47;;;;;;;5.60;4.00;;;23.70;53.50;;;;;;5062971;28;20480;-89
2022/06/26 03:23:14;;;;;;;5.33;4.43;;;23.70;53.50;;;;;;5062877;28;20440;-87
2022/06/26 03:25:41;;;;;;;4.97;4.10;;;23.70;53.80;;;;;;5055752;28;20471;-87
2022/06/26 03:28:08;;;;;;;4.70;3.77;;;23.70;53.60;;;;;;5042975;28;20445;-88
2022/06/26 03:30:45;;;;;;;3.93;3.63;;;23.70;53.50;;;;;;5048134;28;20444;-87
2022/06/26 03:33:13;;;;;;;5.57;4.07;;;23.70;53.40;;;;;;5059188;28;20456;-89
2022/06/26 03:35:40;;;;;;;4.20;3.90;;;23.70;53.40;;;;;;5056927;28;20454;-85
2022/06/26 03:38:10;;;;;;;9.57;4.50;;;23.70;53.30;;;;;;5040343;28;20453;-87
2022/06/26 03:40:37;;;;;;;6.70;4.07;;;23.80;53.40;;;;;;5029011;28;20474;-87
2022/06/26 03:43:09;;;;;;;5.10;4.47;;;23.80;53.40;;;;;;5041703;28;20460;-87
2022/06/26 03:45:47;;;;;;;5.73;4.97;;;23.70;53.30;;;;;;5063322;28;20567;-88
2022/06/26 03:48:14;;;;;;;3.80;3.47;;;23.80;53.30;;;;;;5058513;28;20821;-87
2022/06/26 03:50:41;;;;;;;4.10;3.70;;;23.80;53.30;;;;;;5070359;28;20473;-87
2022/06/26 03:53:10;;;;;;;4.57;4.07;;;23.80;53.40;;;;;;5054634;28;20433;-88
2022/06/26 03:55:38;;;;;;;4.23;3.83;;;23.70;53.50;;;;;;5040553;28;20472;-88
2022/06/26 03:58:08;;;;;;;4.47;4.07;;;23.80;53.40;;;;;;5046315;28;20433;-87
2022/06/26 04:00:36;;;;;;;4.50;4.10;;;23.70;53.10;;;;;;5043414;28;21050;-89
2022/06/26 04:03:04;;;;;;;5.83;4.23;;;23.70;53.20;;;;;;5044980;28;20449;-90
2022/06/26 04:05:32;;;;;;;5.70;5.20;;;23.70;53.50;;;;;;5065483;28;20496;-87
2022/06/26 04:08:00;;;;;;;4.43;4.13;;;23.70;53.40;;;;;;5041738;28;20828;-88
2022/06/26 04:10:35;;;;;;;5.23;4.10;;;23.80;53.30;;;;;;5046895;28;20936;-88
2022/06/26 04:13:10;;;;;;;3.97;3.67;;;23.80;53.40;;;;;;5072473;28;20992;-87
2022/06/26 04:15:42;;;;;;;4.07;3.67;;;23.90;53.60;;;;;;5029442;28;20985;-87
2022/06/26 04:18:10;;;;;;;4.80;4.40;;;23.80;53.90;;;;;;5078183;28;20449;-88
2022/06/26 04:20:37;;;;;;;6.00;4.70;;;23.80;54.00;;;;;;5061197;28;20828;-87
2022/06/26 04:23:07;;;;;;;5.23;4.30;;;23.90;53.80;;;;;;5045289;28;20535;-88
2022/06/26 04:25:38;;;;;;;4.90;4.50;;;24.00;53.70;;;;;;5063869;28;20970;-88
2022/06/26 04:28:07;;;;;;;4.30;3.93;;;24.00;53.60;;;;;;5039373;28;20956;-89
2022/06/26 04:30:38;;;;;;;5.10;4.20;;;24.10;53.60;;;;;;5028447;28;20882;-90
2022/06/26 04:33:05;;;;;;;5.37;4.87;;;24.00;54.00;;;;;;5057833;28;20791;-89
2022/06/26 04:35:35;;;;;;;5.00;4.60;;;23.90;53.80;;;;;;5054618;28;20442;-88
2022/06/26 04:38:03;;;;;;;4.40;4.10;;;23.80;53.90;;;;;;5055171;28;20453;-87
2022/06/26 04:40:31;;;;;;;7.03;5.03;;;23.60;54.50;;;;;;5042691;28;20767;-88
2022/06/26 04:42:59;;;;;;;3.83;3.60;;;23.70;54.60;;;;;;5040114;28;20476;-88
2022/06/26 04:45:27;;;;;;;4.30;4.00;;;23.60;54.70;;;;;;5057878;28;20499;-89
2022/06/26 04:47:58;;;;;;;4.67;4.27;;;23.70;54.70;;;;;;5058148;28;20480;-89
2022/06/26 04:50:25;;;;;;;4.40;4.10;;;23.80;54.50;;;;;;5048206;28;20480;-90
2022/06/26 04:52:54;;;;;;;5.33;4.83;;;23.90;54.30;;;;;;5070897;28;20465;-88
2022/06/26 04:55:26;;;;;;;4.60;4.20;;;23.90;54.00;;;;;;5040599;28;21751;-90
2022/06/26 04:57:53;;;;;;;6.43;4.20;;;24.00;53.80;;;;;;5053710;28;20503;-90
2022/06/26 05:00:22;;;;;;;4.60;4.30;;;24.10;53.80;;;;;;5060300;28;20460;-88
2022/06/26 05:03:00;;;;;;;5.20;4.80;;;24.10;53.70;;;;;;5043200;28;21027;-88
2022/06/26 05:05:40;;;;;;;5.50;4.40;;;24.10;53.70;;;;;;5068567;28;20509;-87
2022/06/26 05:08:19;;;;;;;4.73;4.33;;;24.20;53.80;;;;;;5059079;28;20440;-89
2022/06/26 05:10:47;;;;;;;7.20;4.90;;;24.20;53.40;;;;;;5059633;28;20530;-88
2022/06/26 05:13:14;;;;;;;5.20;4.70;;;24.30;53.40;;;;;;5061173;28;20482;-92
2022/06/26 05:15:46;;;;;;;4.90;4.50;;;24.30;53.30;;;;;;5056777;28;20510;-89
2022/06/26 05:18:14;;;;;;;4.70;4.33;;;24.30;53.40;;;;;;5058360;28;20802;-88
2022/06/26 05:20:41;;;;;;;4.93;4.50;;;24.40;53.30;;;;;;5070177;28;20451;-87
2022/06/26 05:23:11;;;;;;;5.43;4.77;;;24.40;53.30;;;;;;5052355;28;20537;-88
2022/06/26 05:25:45;;;;;;;5.77;4.90;;;24.50;53.40;;;;;;5056610;28;20467;-90
2022/06/26 05:28:13;;;;;;;6.90;4.63;;;24.50;53.50;;;;;;5046282;28;20452;-88
2022/06/26 05:30:40;;;;;;;5.87;5.37;;;24.40;53.50;;;;;;5060766;28;21319;-87
2022/06/26 05:33:11;;;;;;;5.63;5.00;;;24.40;53.50;;;;;;5026461;28;20490;-89
2022/06/26 05:35:38;;;;;;;5.10;4.60;;;24.40;53.10;;;;;;5067141;28;20453;-90
2022/06/26 05:38:06;;;;;;;6.53;4.30;;;24.30;53.10;;;;;;5028062;28;20548;-92
2022/06/26 05:40:33;;;;;;;5.23;4.73;;;24.30;53.20;;;;;;5063951;28;20456;-89
2022/06/26 05:43:01;;;;;;;4.70;4.37;;;24.40;53.10;;;;;;5039746;28;20473;-88
2022/06/26 05:45:28;;;;;;;3.80;3.60;;;24.40;53.10;;;;;;5060688;28;20905;-87
2022/06/26 05:48:15;;;;;;;5.17;4.77;;;24.40;53.10;;;;;;5054294;28;20438;-88
2022/06/26 05:50:49;;;;;;;5.23;4.80;;;24.50;53.30;;;;;;5068243;28;21331;-90
2022/06/26 05:53:35;;;;;;;6.43;4.70;;;24.60;53.40;;;;;;5044812;28;20445;-90
2022/06/26 05:56:20;;;;;;;4.87;4.47;;;24.50;53.30;;;;;;5054388;28;20448;-87
2022/06/26 05:58:53;;;;;;;4.87;4.47;;;24.40;53.30;;;;;;5056348;28;20503;-88
2022/06/26 06:01:40;;;;;;;4.83;4.27;;;24.50;53.20;;;;;;5069522;28;20475;-86
2022/06/26 06:04:14;;;;;;;4.83;4.43;;;24.60;53.00;;;;;;5050261;28;20456;-87
2022/06/26 06:06:42;;;;;;;6.00;4.60;;;24.70;52.60;;;;;;5054317;28;20488;-87
2022/06/26 06:09:09;;;;;;;4.73;4.23;;;24.80;52.30;;;;;;5038269;28;20748;-87
2022/06/26 06:11:36;;;;;;;4.10;3.70;;;25.00;52.10;;;;;;5053649;28;20483;-87
2022/06/26 06:14:03;;;;;;;4.73;3.80;;;25.10;51.20;;;;;;5040449;28;20554;-87
2022/06/26 06:16:31;;;;;;;4.67;3.90;;;25.10;51.60;;;;;;5060277;28;20552;-89
2022/06/26 06:18:58;;;;;;;4.20;3.90;;;25.20;51.70;;;;;;5038083;28;20960;-87
2022/06/26 06:21:30;;;;;;;7.40;4.40;;;25.30;51.60;;;;;;5059540;28;20458;-89
2022/06/26 06:23:58;;;;;;;7.40;3.83;;;25.50;51.20;;;;;;5050830;28;20457;-90
2022/06/26 06:26:25;;;;;;;3.87;3.60;;;25.50;50.90;;;;;;5050487;28;20972;-87
2022/06/26 06:28:55;;;;;;;4.23;3.93;;;25.60;50.80;;;;;;5035361;28;20473;-88
2022/06/26 06:31:22;;;;;;;5.17;4.67;;;25.60;50.90;;;;;;5018381;28;20461;-88
2022/06/26 06:33:49;;;;;;;3.80;3.50;;;25.90;50.80;;;;;;5038345;28;20703;-88
2022/06/26 06:36:18;;;;;;;4.17;3.77;;;26.10;50.00;;;;;;5047032;28;20527;-86
2022/06/26 06:38:46;;;;;;;4.40;3.60;;;26.10;49.80;;;;;;5050611;28;20463;-87
2022/06/26 06:41:13;;;;;;;3.73;3.53;;;25.80;50.40;;;;;;5027214;28;20469;-87
2022/06/26 06:44:00;;;;;;;3.93;3.37;;;25.90;50.30;;;;;;5032638;28;20820;-87
2022/06/26 06:46:27;;;;;;;4.00;3.63;;;26.10;49.80;;;;;;5046846;28;20563;-88
2022/06/26 06:49:00;;;;;;;4.00;3.70;;;26.30;49.50;;;;;;5046365;28;21309;-87
2022/06/26 06:51:47;;;;;;;3.70;3.40;;;26.40;48.70;;;;;;5046768;28;20471;-87
2022/06/26 06:54:15;;;;;;;3.73;3.43;;;26.60;48.60;;;;;;5045060;28;20536;-87
2022/06/26 06:56:42;;;;;;;5.80;3.70;;;26.60;48.50;;;;;;5043206;28;20444;-87
2022/06/26 06:59:09;;;;;;;5.47;3.70;;;26.60;48.60;;;;;;5058923;28;20510;-88
2022/06/26 07:01:37;;;;;;;4.60;3.03;;;26.70;48.20;;;;;;5035085;28;20492;-90
2022/06/26 07:04:04;;;;;;;3.53;3.23;;;26.50;48.20;;;;;;5031771;28;20456;-88
2022/06/26 07:06:31;;;;;;;3.53;3.33;;;26.40;48.00;;;;;;5031421;28;20473;-90
2022/06/26 07:08:59;;;;;;;3.10;2.90;;;26.40;48.40;;;;;;5043418;28;20533;-87
2022/06/26 07:11:32;;;;;;;3.37;3.07;;;26.50;48.10;;;;;;5059732;28;20999;-85
2022/06/26 07:13:59;;;;;;;3.80;3.50;;;26.90;47.30;;;;;;5045871;28;20457;-86
2022/06/26 07:16:26;;;;;;;4.10;3.13;;;26.90;47.70;;;;;;5060611;28;20456;-89
2022/06/26 07:18:53;;;;;;;3.23;3.00;;;26.90;47.70;;;;;;5050775;28;20444;-86
2022/06/26 07:21:20;;;;;;;3.53;3.23;;;26.90;47.30;;;;;;5043416;28;21237;-87
2022/06/26 07:23:47;;;;;;;3.70;3.43;;;27.20;47.80;;;;;;5045456;28;20448;-87
2022/06/26 07:26:49;;;;;;;3.50;3.20;;;27.50;47.00;;;;;;5031186;28;20476;-88
2022/06/26 07:29:17;;;;;;;4.30;2.70;;;27.80;45.70;;;;;;5058380;28;20450;-89
2022/06/26 07:31:44;;;;;;;3.10;2.90;;;27.80;45.10;;;;;;5042430;28;21566;-88
2022/06/26 07:34:17;;;;;;;3.27;2.97;;;27.80;45.50;;;;;;5047428;28;20452;-88
2022/06/26 07:36:45;;;;;;;3.20;3.00;;;27.70;44.80;;;;;;5042997;28;21166;-86
2022/06/26 07:39:14;;;;;;;2.87;2.63;;;27.80;45.70;;;;;;5029357;28;20459;-87
2022/06/26 07:41:42;;;;;;;2.83;2.63;;;27.80;45.40;;;;;;5034745;28;21185;-87
2022/06/26 07:44:12;;;;;;;3.30;3.00;;;27.80;45.50;;;;;;5011362;28;20479;-87
2022/06/26 07:46:40;;;;;;;2.60;2.40;;;27.90;45.30;;;;;;5051447;28;20468;-89
2022/06/26 07:49:09;;;;;;;2.67;2.33;;;28.20;44.90;;;;;;5050422;28;20465;-87
2022/06/26 07:51:37;;;;;;;3.10;2.73;;;28.30;43.70;;;;;;5034266;28;20590;-88
2022/06/26 07:54:04;;;;;;;2.73;2.53;;;28.30;44.50;;;;;;5044555;28;20467;-87
2022/06/26 07:56:31;;;;;;;3.03;2.83;;;28.50;44.60;;;;;;5046464;28;20454;-87
2022/06/26 07:58:59;;;;;;;3.63;3.27;;;28.70;43.90;;;;;;5048769;28;20459;-87
2022/06/26 08:01:27;;;;;;;3.67;3.30;;;28.80;44.00;;;;;;5045742;28;21107;-87
2022/06/26 08:03:54;;;;;;;2.93;2.50;;;29.00;43.80;;;;;;5048802;28;20451;-86
2022/06/26 08:06:21;;;;;;;2.20;2.00;;;29.00;43.10;;;;;;5061209;28;20499;-88
2022/06/26 08:08:48;;;;;;;3.83;3.00;;;29.10;43.40;;;;;;5046702;28;20445;-89
2022/06/26 08:11:16;;;;;;;3.20;2.90;;;29.00;43.30;;;;;;5047473;28;20541;-86
2022/06/26 08:13:43;;;;;;;2.97;2.73;;;29.10;43.30;;;;;;5045295;28;20450;-86
2022/06/26 08:16:10;;;;;;;2.83;2.63;;;29.40;42.70;;;;;;5047588;28;20827;-86
2022/06/26 08:18:38;;;;;;;3.73;2.40;;;29.30;42.70;;;;;;5048407;28;20972;-85
2022/06/26 08:23:46;;;;;;;4.13;3.70;;;29.30;42.90;;;;;;5050189;28;20476;-87
2022/06/26 08:26:13;;;;;;;3.40;3.10;;;29.50;43.00;;;;;;5044644;28;21225;-85
2022/06/26 08:28:40;;;;;;;2.73;2.53;;;29.80;42.40;;;;;;5045612;28;20949;-87
2022/06/26 08:31:07;;;;;;;2.50;2.30;;;29.90;42.50;;;;;;5043067;28;20464;-89
2022/06/26 08:33:34;;;;;;;2.60;2.40;;;30.20;43.10;;;;;;5045767;28;20449;-88
2022/06/26 08:36:03;;;;;;;3.93;2.60;;;30.40;41.80;;;;;;5048240;28;20464;-87
2022/06/26 08:38:30;;;;;;;2.70;2.60;;;30.70;41.00;;;;;;5050555;28;21044;-87
2022/06/26 08:40:58;;;;;;;2.47;2.37;;;30.40;41.00;;;;;;5052021;28;20544;-84
2022/06/26 08:43:26;;;;;;;2.90;2.57;;;30.50;41.80;;;;;;5032072;28;20479;-82
2022/06/26 08:45:54;;;;;;;2.20;2.10;;;30.40;41.50;;;;;;5050209;28;20448;-89
2022/06/26 08:48:25;;;;;;;12.73;3.43;;;30.50;41.20;;;;;;5050669;28;20496;-86
2022/06/26 08:50:52;;;;;;;3.30;1.90;;;30.60;40.80;;;;;;5066325;28;20459;-86
2022/06/26 08:53:21;;;;;;;2.30;2.17;;;30.60;40.80;;;;;;5051897;28;21633;-82
2022/06/26 08:55:50;;;;;;;2.63;2.20;;;30.80;40.40;;;;;;5064967;28;20837;-83
2022/06/26 08:58:17;;;;;;;4.70;2.27;;;31.00;40.10;;;;;;5066306;28;21130;-83
2022/06/26 09:00:46;;;;;;;2.30;2.00;;;31.00;39.90;;;;;;5045174;28;20601;-84
2022/06/26 09:03:15;;;;;;;2.50;2.30;;;30.60;40.20;;;;;;5048902;28;20488;-83
2022/06/26 09:05:42;;;;;;;2.23;2.03;;;30.40;41.10;;;;;;5049985;28;20445;-86
2022/06/26 09:08:18;;;;;;;2.00;1.90;;;30.30;41.10;;;;;;5049873;28;21153;-84
2022/06/26 09:10:47;;;;;;;2.17;1.97;;;30.50;40.50;;;;;;5061080;28;20520;-83
2022/06/26 09:13:14;;;;;;;1.90;1.80;;;30.90;40.60;;;;;;5048472;28;20460;-87
2022/06/26 09:15:43;;;;;;;1.90;1.80;;;31.20;39.40;;;;;;5049767;28;20455;-83
2022/06/26 09:18:12;;;;;;;4.60;3.27;;;31.30;38.30;;;;;;5043766;28;20449;-85
2022/06/26 09:20:51;;;;;;;2.40;2.20;;;31.40;38.70;;;;;;5049794;28;20456;-86
2022/06/26 09:23:18;;;;;;;1.83;1.73;;;31.70;39.00;;;;;;5047142;28;20453;-84
2022/06/26 09:25:47;;;;;;;2.33;2.13;;;32.00;38.30;;;;;;5050434;28;21048;-83
2022/06/26 09:28:16;;;;;;;1.90;1.80;;;32.00;37.30;;;;;;5051220;28;20477;-84
2022/06/26 09:30:56;;;;;;;1.90;1.80;;;32.30;36.80;;;;;;5050544;28;20950;-86
2022/06/26 09:33:25;;;;;;;2.00;1.90;;;32.40;36.60;;;;;;5051045;28;20460;-85
2022/06/26 09:35:53;;;;;;;2.00;1.90;;;32.30;35.90;;;;;;5049630;28;20453;-83
2022/06/26 09:38:22;;;;;;;1.83;1.60;;;32.40;36.70;;;;;;5047635;28;20510;-83
2022/06/26 09:40:53;;;;;;;2.20;2.10;;;32.40;35.30;;;;;;5050038;28;20458;-86
2022/06/26 09:43:31;;;;;;;2.20;1.90;;;32.60;34.90;;;;;;5048792;28;20453;-85
2022/06/26 09:46:00;;;;;;;2.10;1.90;;;32.80;35.60;;;;;;5044923;28;20640;-83
2022/06/26 09:48:28;;;;;;;1.87;1.77;;;33.00;34.20;;;;;;5063300;28;20480;-85
2022/06/26 09:50:56;;;;;;;2.10;2.00;;;32.90;33.40;;;;;;5051287;28;20441;-82
2022/06/26 09:53:25;;;;;;;2.03;1.90;;;32.80;34.10;;;;;;5049052;28;20961;-84
2022/06/26 09:55:54;;;;;;;2.07;1.97;;;32.90;33.60;;;;;;5050902;28;20890;-84
2022/06/26 09:58:22;;;;;;;2.17;2.07;;;33.00;33.70;;;;;;5045189;28;20473;-83
2022/06/26 10:06:28;;;;;;;1.93;1.83;;;33.50;32.30;;;;;;5047102;28;21293;-83
2022/06/26 10:08:57;;;;;;;1.70;1.60;;;33.50;31.90;;;;;;5046706;28;20992;-83
2022/06/26 10:11:28;;;;;;;3.97;2.30;;;33.20;32.40;;;;;;5048530;28;20510;-84
2022/06/26 10:13:58;;;;;;;2.30;2.10;;;33.20;31.70;;;;;;5048225;28;20543;-84
2022/06/26 10:16:44;;;;;;;2.27;1.90;;;33.40;33.40;;;;;;5046018;28;20480;-85
2022/06/26 10:19:23;;;;;;;1.83;1.73;;;33.70;31.10;;;;;;5047654;28;20460;-83
2022/06/26 10:21:51;;;;;;;1.73;1.63;;;33.80;32.40;;;;;;5049518;28;20984;-84
2022/06/26 10:24:18;;;;;;;7.17;1.80;;;34.00;32.00;;;;;;5046350;28;20462;-83
2022/06/26 10:26:55;;;;;;;1.90;1.70;;;34.10;30.60;;;;;;5062674;28;20495;-84
2022/06/26 10:29:33;;;;;;;2.00;1.90;;;34.10;31.10;;;;;;5052123;28;20444;-85
2022/06/26 10:32:00;;;;;;;1.80;1.70;;;34.00;31.00;;;;;;5043628;28;20857;-86
2022/06/26 10:34:27;;;;;;;2.00;1.90;;;34.10;30.90;;;;;;5045935;28;20475;-84
2022/06/26 10:37:03;;;;;;;3.07;1.73;;;34.20;30.80;;;;;;5046151;28;20496;-84
2022/06/26 10:39:41;;;;;;;2.00;1.90;;;34.30;30.50;;;;;;5049024;28;20536;-84
2022/06/26 10:45:05;;;;;;;1.83;1.73;;;34.90;29.80;;;;;;5063957;28;20457;-83
2022/06/26 10:47:48;;;;;;;2.37;2.17;;;35.00;29.90;;;;;;5049950;28;20499;-86
2022/06/26 10:50:34;;;;;;;2.00;1.90;;;34.80;29.30;;;;;;5037143;28;20453;-85
2022/06/26 10:53:19;;;;;;;1.80;1.67;;;35.10;30.20;;;;;;5049268;28;20465;-82
2022/06/26 10:55:49;;;;;;;2.00;1.90;;;35.10;29.90;;;;;;5049665;28;20457;-82
2022/06/26 10:58:23;;;;;;;2.00;1.63;;;35.00;30.00;;;;;;5046725;28;20515;-84
2022/06/26 11:00:52;;;;;;;1.97;1.87;;;34.60;30.10;;;;;;5047858;28;21135;-83
2022/06/26 11:03:19;;;;;;;2.20;1.50;;;34.20;31.20;;;;;;5022045;28;20536;-83
2022/06/26 11:05:54;;;;;;;5.10;2.50;;;34.30;31.70;;;;;;5045203;28;20523;-83
2022/06/26 11:08:27;;;;;;;3.00;2.10;;;34.30;31.10;;;;;;5048059;28;20479;-83
2022/06/26 11:10:58;;;;;;;1.70;1.60;;;34.30;32.10;;;;;;5050045;28;20452;-84
2022/06/26 11:13:26;;;;;;;1.97;1.87;;;34.30;31.10;;;;;;5048040;28;20446;-84
2022/06/26 11:15:54;;;;;;;1.93;1.83;;;34.60;30.80;;;;;;5054677;28;20458;-83
2022/06/26 11:18:20;;;;;;;2.23;2.03;;;34.40;30.50;;;;;;5046564;28;20460;-84
2022/06/26 11:20:50;;;;;;;1.97;1.87;;;34.70;30.70;;;;;;5047961;28;20448;-83
2022/06/26 11:23:22;;;;;;;1.90;1.80;;;35.00;30.80;;;;;;5045089;28;20445;-84
2022/06/26 11:25:51;;;;;;;2.10;2.00;;;35.30;29.80;;;;;;5046881;28;20460;-84
2022/06/26 11:28:18;;;;;;;1.80;1.70;;;35.00;29.30;;;;;;5048646;28;20492;-83
2022/06/26 11:30:48;;;;;;;1.77;1.67;;;34.90;30.00;;;;;;5054326;28;20822;-83
2022/06/26 11:33:24;;;;;;;2.00;1.90;;;35.00;30.90;;;;;;5029053;28;20579;-87
2022/06/26 11:35:51;;;;;;;1.90;1.80;;;35.00;30.00;;;;;;5053954;28;20487;-84
2022/06/26 11:38:19;;;;;;;4.23;2.13;;;34.80;30.50;;;;;;5045656;28;20887;-82
2022/06/26 11:40:47;;;;;;;1.90;1.80;;;35.00;29.90;;;;;;5046172;28;20489;-85
2022/06/26 11:43:15;;;;;;;2.00;1.90;;;35.20;30.60;;;;;;5045875;28;20460;-83
2022/06/26 11:45:43;;;;;;;1.77;1.67;;;35.10;29.50;;;;;;5022355;28;20463;-83
2022/06/26 11:48:16;;;;;;;2.83;2.23;;;35.40;30.50;;;;;;5046802;28;20512;-85
2022/06/26 11:50:44;;;;;;;1.60;1.50;;;35.60;28.50;;;;;;5049072;28;20491;-84
2022/06/26 11:53:17;;;;;;;1.83;1.73;;;35.40;28.90;;;;;;5050263;28;20449;-83
2022/06/26 11:55:46;;;;;;;1.70;1.60;;;35.40;28.70;;;;;;5047671;28;20449;-85
2022/06/26 11:58:14;;;;;;;2.80;2.00;;;35.60;29.40;;;;;;5047680;28;20452;-85
2022/06/26 12:00:41;;;;;;;2.23;2.13;;;35.60;28.70;;;;;;5046180;28;20568;-83
2022/06/26 12:03:13;;;;;;;1.97;1.87;;;35.40;28.80;;;;;;5062220;28;20467;-86
2022/06/26 12:05:42;;;;;;;2.10;1.93;;;35.40;28.60;;;;;;5043225;28;20456;-86
2022/06/26 12:08:17;;;;;;;2.03;1.93;;;35.50;28.70;;;;;;5044427;28;20477;-84
2022/06/26 12:10:49;;;;;;;3.23;1.87;;;35.40;29.20;;;;;;5033480;28;20433;-83
2022/06/26 12:13:29;;;;;;;1.83;1.73;;;35.30;29.30;;;;;;5053404;28;20463;-84
2022/06/26 12:16:02;;;;;;;2.63;2.10;;;35.40;29.00;;;;;;5053324;28;20445;-84
2022/06/26 12:18:31;;;;;;;1.70;1.60;;;35.40;29.00;;;;;;5052772;28;20444;-85
2022/06/26 12:20:58;;;;;;;1.87;1.77;;;35.20;28.90;;;;;;5051588;28;20666;-85
2022/06/26 12:23:33;;;;;;;1.80;1.70;;;35.20;28.80;;;;;;5053024;28;20446;-83
2022/06/26 12:26:08;;;;;;;1.80;1.70;;;35.70;29.20;;;;;;5050683;28;20458;-83
2022/06/26 12:28:47;;;;;;;2.53;1.77;;;36.00;27.90;;;;;;5052657;28;20480;-86
2022/06/26 12:31:16;;;;;;;1.93;1.83;;;35.90;28.10;;;;;;5053323;28;20476;-85
2022/06/26 12:33:45;;;;;;;1.70;1.60;;;35.80;28.50;;;;;;5064749;28;20441;-86
2022/06/26 12:36:13;;;;;;;2.40;2.30;;;35.70;28.10;;;;;;5051873;28;20453;-84
2022/06/26 12:38:40;;;;;;;2.00;1.90;;;35.10;28.70;;;;;;5050159;28;20448;-83
2022/06/26 12:41:16;;;;;;;2.23;2.03;;;34.80;29.00;;;;;;5051959;28;20484;-84
2022/06/26 12:43:45;;;;;;;1.77;1.67;;;34.70;29.60;;;;;;5053736;28;20446;-87
2022/06/26 12:46:12;;;;;;;2.80;1.97;;;34.60;29.70;;;;;;5051573;28;20453;-85
2022/06/26 12:48:39;;;;;;;1.90;1.80;;;34.50;30.10;;;;;;5046036;28;20473;-84
2022/06/26 12:51:08;;;;;;;1.90;1.70;;;34.70;30.70;;;;;;5048059;28;20459;-85
2022/06/26 12:53:35;;;;;;;2.27;1.87;;;35.10;30.50;;;;;;5030753;28;20878;-84
2022/06/26 12:56:02;;;;;;;1.90;1.80;;;35.70;29.70;;;;;;5051393;28;20453;-84
2022/06/26 12:58:29;;;;;;;1.97;1.87;;;35.50;28.30;;;;;;5049867;28;20494;-85
2022/06/26 13:00:56;;;;;;;2.30;2.10;;;35.00;28.90;;;;;;5048876;28;20457;-84
2022/06/26 13:03:23;;;;;;;2.20;2.10;;;35.00;29.50;;;;;;5051058;28;20448;-85
2022/06/26 13:05:51;;;;;;;2.53;1.90;;;35.00;29.30;;;;;;5050267;28;20460;-83
2022/06/26 13:08:19;;;;;;;1.97;1.87;;;34.90;30.10;;;;;;5056942;28;21376;-85
2022/06/26 13:10:46;;;;;;;3.30;2.10;;;34.90;30.00;;;;;;5066705;28;20453;-83
2022/06/26 13:13:14;;;;;;;2.00;1.90;;;35.10;30.50;;;;;;5048821;28;20460;-84